createdAt,value
2018-04-02T00:01:47.061Z,1.53
2018-04-02T00:04:15.135Z,1.50
2018-04-02T00:06:42.738Z,1.60
2018-04-02T00:09:10.387Z,1.53
2018-04-02T00:11:38.021Z,1.47
2018-04-02T00:14:06.191Z,1.47
2018-04-02T00:16:33.847Z,1.60
2018-04-02T00:19:01.432Z,1.40
2018-04-02T00:21:29.093Z,1.40
2018-04-02T00:23:56.801Z,1.57
2018-04-02T00:26:24.952Z,1.47
2018-04-02T00:28:52.576Z,1.80
2018-04-02T00:31:20.281Z,1.27
2018-04-02T00:33:47.934Z,2.20
2018-04-02T00:36:15.652Z,1.80
2018-04-02T00:38:43.309Z,1.20
2018-04-02T00:41:10.968Z,1.60
2018-04-02T00:43:38.578Z,1.70
2018-04-02T00:46:06.227Z,1.10
2018-04-02T00:48:33.822Z,1.50
2018-04-02T00:51:01.466Z,1.47
2018-04-02T00:53:29.162Z,0.90
2018-04-02T00:55:56.812Z,1.53
2018-04-02T00:58:25.198Z,1.10
2018-04-02T01:00:52.851Z,1.13
2018-04-02T01:03:20.479Z,0.87
2018-04-02T01:05:48.123Z,0.87
2018-04-02T01:08:16.217Z,1.07
2018-04-02T01:10:43.962Z,1.40
2018-04-02T01:13:11.595Z,1.00
2018-04-02T01:15:39.182Z,0.93
2018-04-02T01:18:06.854Z,1.03
2018-04-02T01:20:34.485Z,0.90
2018-04-02T01:23:02.780Z,0.70
2018-04-02T01:25:30.486Z,0.60
2018-04-02T01:27:58.136Z,1.00
2018-04-02T01:30:25.713Z,1.03
2018-04-02T01:32:53.331Z,1.47
2018-04-02T01:35:20.910Z,1.13
2018-04-02T01:37:48.528Z,0.67
2018-04-02T01:40:16.173Z,0.83
2018-04-02T01:42:43.785Z,0.87
2018-04-02T01:45:11.441Z,0.83
2018-04-02T01:47:39.087Z,0.50
2018-04-02T01:50:06.703Z,0.70
2018-04-02T01:52:34.396Z,1.23
2018-04-02T01:55:01.988Z,0.70
2018-04-02T01:57:29.614Z,0.43
2018-04-02T01:59:57.210Z,0.70
2018-04-02T02:02:24.894Z,0.73
2018-04-02T02:04:52.481Z,0.77
2018-04-02T02:07:20.151Z,0.60
2018-04-02T02:09:47.745Z,0.90
2018-04-02T02:12:15.330Z,0.60
2018-04-02T02:14:42.983Z,0.73
2018-04-02T02:17:10.569Z,1.10
2018-04-02T02:19:38.197Z,0.93
2018-04-02T02:22:05.898Z,1.00
2018-04-02T02:24:33.532Z,1.37
2018-04-02T02:27:01.178Z,1.43
2018-04-02T02:29:28.829Z,1.17
2018-04-02T02:31:56.406Z,1.30
2018-04-02T02:34:24.276Z,0.70
2018-04-02T02:36:51.911Z,1.20
2018-04-02T02:39:19.659Z,1.30
2018-04-02T02:41:47.282Z,1.23
2018-04-02T02:44:14.919Z,1.47
2018-04-02T02:46:42.558Z,1.13
2018-04-02T02:49:10.174Z,1.90
2018-04-02T02:51:37.804Z,1.27
2018-04-02T02:54:05.406Z,1.57
2018-04-02T02:56:33.046Z,1.93
2018-04-02T02:59:00.634Z,1.20
2018-04-02T03:01:28.245Z,1.27
2018-04-02T03:03:55.884Z,2.23
2018-04-02T03:06:23.475Z,1.73
2018-04-02T03:08:51.130Z,1.20
2018-04-02T03:11:18.754Z,1.90
2018-04-02T03:13:46.423Z,2.10
2018-04-02T03:16:13.997Z,1.97
2018-04-02T03:18:41.673Z,2.30
2018-04-02T03:21:09.454Z,1.73
2018-04-02T03:23:37.108Z,0.70
2018-04-02T03:26:04.737Z,1.27
2018-04-02T03:28:32.338Z,1.60
2018-04-02T03:31:00.005Z,0.87
2018-04-02T03:33:27.668Z,0.90
2018-04-02T03:35:55.294Z,1.13
2018-04-02T03:38:23.050Z,0.80
2018-04-02T03:40:50.684Z,1.40
2018-04-02T03:43:18.314Z,1.27
2018-04-02T03:45:45.952Z,1.27
2018-04-02T03:48:13.636Z,1.37
2018-04-02T03:50:41.283Z,1.20
2018-04-02T03:53:08.895Z,0.90
2018-04-02T03:55:36.572Z,1.40
2018-04-02T03:58:04.182Z,1.10
2018-04-02T04:00:31.846Z,1.10
2018-04-02T04:02:59.508Z,1.27
2018-04-02T04:05:27.126Z,2.27
2018-04-02T04:07:55.100Z,1.07
2018-04-02T04:10:22.779Z,1.00
2018-04-02T04:12:50.434Z,1.60
2018-04-02T04:15:18.099Z,1.70
2018-04-02T04:17:45.672Z,1.83
2018-04-02T04:20:13.316Z,1.67
2018-04-02T04:22:40.951Z,2.53
2018-04-02T04:25:08.551Z,2.90
2018-04-02T04:27:36.334Z,2.77
2018-04-02T04:30:04.003Z,1.90
2018-04-02T04:32:31.644Z,2.17
2018-04-02T04:34:59.222Z,2.10
2018-04-02T04:37:26.889Z,1.17
2018-04-02T04:39:54.543Z,2.03
2018-04-02T04:42:22.122Z,1.20
2018-04-02T04:44:49.719Z,1.73
2018-04-02T04:47:18.615Z,2.30
2018-04-02T04:49:46.209Z,2.03
2018-04-02T04:52:13.816Z,1.90
2018-04-02T04:54:41.452Z,1.97
2018-04-02T04:57:10.070Z,2.57
2018-04-02T04:59:38.744Z,2.60
2018-04-02T05:02:06.410Z,2.20
2018-04-02T05:04:34.096Z,2.00
2018-04-02T05:07:01.788Z,2.30
2018-04-02T05:09:29.385Z,2.60
2018-04-02T05:11:57.066Z,2.30
2018-04-02T05:14:25.399Z,2.00
2018-04-02T05:16:53.070Z,1.80
2018-04-02T05:19:20.936Z,1.60
2018-04-02T05:21:48.610Z,2.73
2018-04-02T05:24:16.193Z,2.10
2018-04-02T05:26:43.848Z,2.43
2018-04-02T05:29:11.439Z,2.43
2018-04-02T05:31:39.053Z,2.80
2018-04-02T05:34:06.697Z,1.60
2018-04-02T05:36:34.274Z,1.10
2018-04-02T05:39:02.358Z,1.50
2018-04-02T05:41:30.052Z,1.60
2018-04-02T05:43:57.704Z,1.60
2018-04-02T05:46:25.392Z,2.33
2018-04-02T05:48:53.195Z,1.97
2018-04-02T05:51:20.808Z,2.30
2018-04-02T05:53:48.487Z,1.23
2018-04-02T05:56:16.095Z,1.70
2018-04-02T05:58:43.715Z,1.10
2018-04-02T06:01:11.378Z,1.80
2018-04-02T06:03:39.080Z,1.70
2018-04-02T06:06:06.704Z,1.70
2018-04-02T06:08:34.370Z,1.37
2018-04-02T06:11:01.960Z,1.90
2018-04-02T06:13:29.859Z,1.83
2018-04-02T06:15:57.471Z,2.03
2018-04-02T06:18:25.162Z,2.50
2018-04-02T06:20:53.107Z,2.00
2018-04-02T06:23:20.761Z,2.30
2018-04-02T06:25:48.375Z,1.87
2018-04-02T06:28:16.036Z,1.80
2018-04-02T06:30:44.903Z,2.20
2018-04-02T06:33:12.638Z,2.30
2018-04-02T06:35:40.301Z,2.20
2018-04-02T06:38:08.179Z,2.00
2018-04-02T06:40:35.841Z,1.77
2018-04-02T06:43:03.458Z,2.30
2018-04-02T06:45:31.137Z,1.60
2018-04-02T06:47:59.131Z,1.90
2018-04-02T06:50:26.791Z,1.53
2018-04-02T06:52:54.490Z,1.27
2018-04-02T06:55:22.095Z,1.60
2018-04-02T06:57:49.988Z,1.50
2018-04-02T07:00:18.897Z,1.53
2018-04-02T07:02:46.505Z,2.17
2018-04-02T07:05:14.257Z,1.93
2018-04-02T07:07:42.046Z,2.23
2018-04-02T07:10:09.657Z,1.87
2018-04-02T07:12:37.307Z,1.73
2018-04-02T07:15:05.346Z,2.10
2018-04-02T07:17:33.119Z,1.53
2018-04-02T07:20:00.810Z,1.50
2018-04-02T07:22:28.538Z,1.47
2018-04-02T07:24:56.208Z,1.70
2018-04-02T07:27:23.871Z,1.60
2018-04-02T07:29:52.353Z,1.77
2018-04-02T07:32:20.222Z,2.33
2018-04-02T07:34:49.011Z,2.30
2018-04-02T07:37:16.779Z,1.63
2018-04-02T07:39:44.572Z,2.13
2018-04-02T07:42:12.198Z,1.70
2018-04-02T07:44:40.069Z,1.73
2018-04-02T07:47:07.806Z,1.50
2018-04-02T07:49:35.511Z,1.93
2018-04-02T07:52:04.371Z,2.00
2018-04-02T07:54:32.984Z,1.80
2018-04-02T07:57:01.042Z,2.73
2018-04-02T07:59:28.708Z,1.43
2018-04-02T08:01:56.453Z,1.40
2018-04-02T08:04:24.280Z,1.67
2018-04-02T08:06:51.902Z,1.50
2018-04-02T08:09:19.573Z,1.40
2018-04-02T08:11:47.524Z,1.90
2018-04-02T08:14:16.276Z,1.80
2018-04-02T08:16:44.285Z,1.50
2018-04-02T08:19:12.147Z,1.40
2018-04-02T08:21:39.802Z,1.93
2018-04-02T08:24:07.457Z,1.73
2018-04-02T08:26:35.157Z,1.83
2018-04-02T08:29:02.817Z,1.67
2018-04-02T08:31:30.467Z,1.93
2018-04-02T08:33:58.252Z,1.87
2018-04-02T08:36:25.930Z,2.00
2018-04-02T08:38:53.679Z,2.67
2018-04-02T08:41:21.318Z,2.00
2018-04-02T08:43:49.014Z,1.70
2018-04-02T08:46:16.678Z,2.00
2018-04-02T08:48:44.379Z,3.87
2018-04-02T08:51:12.112Z,1.57
2018-04-02T08:53:39.784Z,1.17
2018-04-02T08:56:07.454Z,1.40
2018-04-02T08:58:36.143Z,2.00
2018-04-02T09:01:03.797Z,1.90
2018-04-02T09:03:31.527Z,1.97
2018-04-02T09:06:00.472Z,2.03
2018-04-02T09:08:28.254Z,1.40
2018-04-02T09:10:56.004Z,1.97
2018-04-02T09:13:23.674Z,1.40
2018-04-02T09:15:51.674Z,1.33
2018-04-02T09:18:19.356Z,2.30
2018-04-02T09:20:47.860Z,0.90
2018-04-02T09:23:15.576Z,1.77
2018-04-02T09:25:43.550Z,1.17
2018-04-02T09:28:11.235Z,1.80
2018-04-02T09:30:38.988Z,1.50
2018-04-02T09:33:06.595Z,1.13
2018-04-02T09:35:34.304Z,1.70
2018-04-02T09:38:01.971Z,1.20
2018-04-02T09:40:29.654Z,1.60
2018-04-02T09:42:57.281Z,1.20
2018-04-02T09:45:24.976Z,1.10
2018-04-02T09:47:52.646Z,1.27
2018-04-02T09:50:20.374Z,1.23
2018-04-02T09:52:48.006Z,0.83
2018-04-02T09:55:15.706Z,1.10
2018-04-02T09:57:43.335Z,1.00
2018-04-02T10:00:11.001Z,1.10
2018-04-02T10:02:38.697Z,1.33
2018-04-02T10:05:06.489Z,1.20
2018-04-02T10:07:34.111Z,1.13
2018-04-02T10:10:01.919Z,0.90
2018-04-02T10:12:29.537Z,1.20
2018-04-02T10:14:57.592Z,0.80
2018-04-02T10:17:25.383Z,1.07
2018-04-02T10:19:53.090Z,1.33
2018-04-02T10:22:20.891Z,0.90
2018-04-02T10:24:48.543Z,1.23
2018-04-02T10:27:16.171Z,0.67
2018-04-02T10:29:43.894Z,0.67
2018-04-02T10:32:11.495Z,0.77
2018-04-02T10:34:39.576Z,0.90
2018-04-02T10:37:08.619Z,0.60
2018-04-02T10:39:36.288Z,1.13
2018-04-02T10:42:03.975Z,0.77
2018-04-02T10:44:31.640Z,0.70
2018-04-02T10:46:59.274Z,0.70
2018-04-02T10:49:27.003Z,0.90
2018-04-02T10:51:54.622Z,0.73
2018-04-02T10:54:22.303Z,0.90
2018-04-02T10:56:49.960Z,0.50
2018-04-02T10:59:17.636Z,1.50
2018-04-02T11:01:45.288Z,0.40
2018-04-02T11:04:12.957Z,1.10
2018-04-02T11:06:40.583Z,0.70
2018-04-02T11:09:08.762Z,0.60
2018-04-02T11:11:36.498Z,0.60
2018-04-02T11:14:04.107Z,0.40
2018-04-02T11:16:31.829Z,0.70
2018-04-02T11:18:59.478Z,1.03
2018-04-02T11:21:27.138Z,0.60
2018-04-02T11:23:54.821Z,0.57
2018-04-02T11:26:22.491Z,0.40
2018-04-02T11:28:50.196Z,0.80
2018-04-02T11:31:17.864Z,0.60
2018-04-02T11:33:45.528Z,0.70
2018-04-02T11:36:13.437Z,0.70
2018-04-02T11:38:41.096Z,0.47
2018-04-02T11:41:08.810Z,1.00
2018-04-02T11:43:36.438Z,0.70
2018-04-02T11:46:04.104Z,0.70
2018-04-02T11:48:31.802Z,0.40
2018-04-02T11:50:59.578Z,0.40
2018-04-02T11:53:27.182Z,0.30
2018-04-02T11:55:54.845Z,0.87
2018-04-02T11:58:22.543Z,0.60
2018-04-02T12:00:50.247Z,0.53
2018-04-02T12:03:17.859Z,0.80
2018-04-02T12:05:45.519Z,0.40
2018-04-02T12:08:13.194Z,0.40
2018-04-02T12:10:40.856Z,0.43
2018-04-02T12:13:08.525Z,0.53
2018-04-02T12:15:36.141Z,0.70
2018-04-02T12:18:03.765Z,0.50
2018-04-02T12:20:31.440Z,0.40
2018-04-02T12:22:59.134Z,0.30
2018-04-02T12:25:28.193Z,0.30
2018-04-02T12:27:55.873Z,0.50
2018-04-02T12:30:23.560Z,0.60
2018-04-02T12:32:51.298Z,0.30
2018-04-02T12:35:18.979Z,0.30
2018-04-02T12:37:46.673Z,0.50
2018-04-02T12:40:14.431Z,0.47
2018-04-02T12:42:42.047Z,0.50
2018-04-02T12:45:09.696Z,0.30
2018-04-02T12:47:37.388Z,0.60
2018-04-02T12:50:05.014Z,0.47
2018-04-02T12:52:32.645Z,0.50
2018-04-02T12:55:00.258Z,0.50
2018-04-02T12:57:27.922Z,0.57
2018-04-02T12:59:55.529Z,0.40
2018-04-02T13:02:23.310Z,0.50
2018-04-02T13:04:51.014Z,0.73
2018-04-02T13:07:18.669Z,0.60
2018-04-02T13:09:46.273Z,0.43
2018-04-02T13:12:14.433Z,0.50
2018-04-02T13:14:42.088Z,0.20
2018-04-02T13:17:09.757Z,0.70
2018-04-02T13:19:37.399Z,0.70
2018-04-02T13:22:05.022Z,0.43
2018-04-02T13:24:32.700Z,0.60
2018-04-02T13:27:00.351Z,0.47
2018-04-02T13:29:27.936Z,0.40
2018-04-02T13:31:55.704Z,0.20
2018-04-02T13:34:23.393Z,0.40
2018-04-02T13:36:51.024Z,0.30
2018-04-02T13:39:18.662Z,0.47
2018-04-02T13:41:46.266Z,0.47
2018-04-02T13:44:14.015Z,0.40
2018-04-02T13:46:41.607Z,0.30
2018-04-02T13:49:11.518Z,0.47
2018-04-02T13:51:41.116Z,0.50
2018-04-02T13:54:10.446Z,0.47
2018-04-02T13:56:38.334Z,0.30
2018-04-02T13:59:06.205Z,0.30
2018-04-02T14:01:34.779Z,0.40
2018-04-02T14:04:02.851Z,0.30
2018-04-02T14:06:30.540Z,0.40
2018-04-02T14:08:58.220Z,0.40
2018-04-02T14:11:26.244Z,0.60
2018-04-02T14:13:53.916Z,0.30
2018-04-02T14:16:22.123Z,0.57
2018-04-02T14:18:49.897Z,0.30
2018-04-02T14:21:17.527Z,0.27
2018-04-02T14:23:45.160Z,0.50
2018-04-02T14:26:12.812Z,0.30
2018-04-02T14:28:40.482Z,0.30
2018-04-02T14:31:08.913Z,0.30
2018-04-02T14:33:36.534Z,0.20
2018-04-02T14:36:04.237Z,0.30
2018-04-02T14:38:31.872Z,0.40
2018-04-02T14:40:59.520Z,0.43
2018-04-02T14:43:27.131Z,0.50
2018-04-02T14:45:54.784Z,0.57
2018-04-02T14:48:22.433Z,0.50
2018-04-02T14:50:50.052Z,0.20
2018-04-02T14:53:17.641Z,0.30
2018-04-02T14:55:45.513Z,0.40
2018-04-02T14:58:14.129Z,0.50
2018-04-02T15:00:42.688Z,0.30
2018-04-02T15:03:10.355Z,0.50
2018-04-02T15:05:38.109Z,0.30
2018-04-02T15:08:06.164Z,0.40
2018-04-02T15:10:33.828Z,0.30
2018-04-02T15:13:01.736Z,0.30
2018-04-02T15:15:29.456Z,0.43
2018-04-02T15:17:57.100Z,0.33
2018-04-02T15:20:24.721Z,0.40
2018-04-02T15:22:52.449Z,0.30
2018-04-02T15:25:20.048Z,0.30
2018-04-02T15:27:47.710Z,0.27
2018-04-02T15:30:15.355Z,0.70
2018-04-02T15:32:43.000Z,0.53
2018-04-02T15:35:10.679Z,0.50
2018-04-02T15:37:38.394Z,0.30
2018-04-02T15:40:06.108Z,0.47
2018-04-02T15:42:34.903Z,0.30
2018-04-02T15:45:02.584Z,0.73
2018-04-02T15:47:30.503Z,0.40
2018-04-02T15:49:58.176Z,0.37
2018-04-02T15:52:25.830Z,0.43
2018-04-02T15:54:53.459Z,0.60
2018-04-02T15:57:21.090Z,0.50
2018-04-02T15:59:48.875Z,0.70
2018-04-02T16:02:16.585Z,0.30
2018-04-02T16:04:44.310Z,0.33
2018-04-02T16:07:11.959Z,1.27
2018-04-02T16:09:39.727Z,0.40
2018-04-02T16:12:08.144Z,0.30
2018-04-02T16:14:35.817Z,0.50
2018-04-02T16:17:03.525Z,0.40
2018-04-02T16:19:31.447Z,0.50
2018-04-02T16:21:59.134Z,0.40
2018-04-02T16:24:26.850Z,0.27
2018-04-02T16:26:54.945Z,0.40
2018-04-02T16:29:22.631Z,0.73
2018-04-02T16:31:50.300Z,1.80
2018-04-02T16:34:19.242Z,0.33
2018-04-02T16:36:47.839Z,0.30
2018-04-02T16:39:15.610Z,0.47
2018-04-02T16:41:43.262Z,0.33
2018-04-02T16:44:11.041Z,0.40
2018-04-02T16:46:38.841Z,0.60
2018-04-02T16:49:06.576Z,0.30
2018-04-02T16:51:34.258Z,0.57
2018-04-02T16:54:01.932Z,0.40
2018-04-02T16:56:29.637Z,0.40
2018-04-02T16:58:57.325Z,0.60
2018-04-02T17:01:24.994Z,0.33
2018-04-02T17:03:52.699Z,1.00
2018-04-02T17:06:20.377Z,0.73
2018-04-02T17:08:48.098Z,1.00
2018-04-02T17:11:15.837Z,0.60
2018-04-02T17:13:43.569Z,0.60
2018-04-02T17:16:12.537Z,0.50
2018-04-02T17:18:41.325Z,0.40
2018-04-02T17:21:09.063Z,0.40
2018-04-02T17:23:36.852Z,0.43
2018-04-02T17:26:05.764Z,0.40
2018-04-02T17:28:33.504Z,0.47
2018-04-02T17:31:01.357Z,1.30
2018-04-02T17:33:29.148Z,0.63
2018-04-02T17:35:57.220Z,0.80
2018-04-02T17:38:24.965Z,0.50
2018-04-02T17:40:52.718Z,0.93
2018-04-02T17:43:20.599Z,0.77
2018-04-02T17:45:48.570Z,0.50
2018-04-02T17:48:16.430Z,0.50
2018-04-02T17:50:44.204Z,0.40
2018-04-02T17:53:11.906Z,0.60
2018-04-02T17:55:39.826Z,0.60
2018-04-02T17:58:07.504Z,0.50
2018-04-02T18:00:35.174Z,0.50
2018-04-02T18:03:02.913Z,0.60
2018-04-02T18:05:30.619Z,1.73
2018-04-02T18:07:58.370Z,0.40
2018-04-02T18:10:26.610Z,0.43
2018-04-02T18:12:54.525Z,0.50
2018-04-02T18:15:22.334Z,0.40
2018-04-02T18:17:50.128Z,0.57
2018-04-02T18:20:19.433Z,0.50
2018-04-02T18:22:47.380Z,0.40
2018-04-02T18:25:15.187Z,0.57
2018-04-02T18:27:42.881Z,0.67
2018-04-02T18:30:12.027Z,0.60
2018-04-02T18:32:39.851Z,0.43
2018-04-02T18:35:07.548Z,0.30
2018-04-02T18:37:35.855Z,0.40
2018-04-02T18:40:04.456Z,0.40
2018-04-02T18:42:32.535Z,0.40
2018-04-02T18:45:01.641Z,0.70
2018-04-02T18:47:30.093Z,0.50
2018-04-02T18:49:57.883Z,0.60
2018-04-02T18:52:26.068Z,0.47
2018-04-02T18:54:55.350Z,0.50
2018-04-02T18:57:25.741Z,1.10
2018-04-02T18:59:53.463Z,0.97
2018-04-02T19:02:21.162Z,0.80
2018-04-02T19:04:49.183Z,0.87
2018-04-02T19:07:17.411Z,0.73
2018-04-02T19:09:45.482Z,0.47
2018-04-02T19:12:13.669Z,0.50
2018-04-02T19:14:42.670Z,0.50
2018-04-02T19:17:10.679Z,0.40
2018-04-02T19:19:39.984Z,0.50
2018-04-02T19:22:08.090Z,0.50
2018-04-02T19:24:36.878Z,0.40
2018-04-02T19:27:06.375Z,0.30
2018-04-02T19:29:34.835Z,0.50
2018-04-02T19:32:02.627Z,0.50
2018-04-02T19:34:30.259Z,2.10
2018-04-02T19:36:58.934Z,0.70
2018-04-02T19:39:26.571Z,0.63
2018-04-02T19:41:54.213Z,0.30
2018-04-02T19:44:22.001Z,0.70
2018-04-02T19:46:49.676Z,0.40
2018-04-02T19:49:17.491Z,0.70
2018-04-02T19:51:45.188Z,0.77
2018-04-02T19:54:12.906Z,0.90
2018-04-02T19:56:40.601Z,0.67
2018-04-02T19:59:08.249Z,0.97
2018-04-02T20:01:35.960Z,1.50
2018-04-02T20:04:04.501Z,2.17
2018-04-02T20:06:33.174Z,2.40
2018-04-02T20:09:00.841Z,1.00
2018-04-02T20:11:28.549Z,0.50
2018-04-02T20:13:56.229Z,0.80
2018-04-02T20:16:24.078Z,0.50
2018-04-02T20:18:51.780Z,0.77
2018-04-02T20:21:19.368Z,0.67
2018-04-02T20:23:47.064Z,0.73
2018-04-02T20:26:14.821Z,0.70
2018-04-02T20:28:42.449Z,0.90
2018-04-02T20:31:10.061Z,0.50
2018-04-02T20:33:37.719Z,0.40
2018-04-02T20:36:05.353Z,0.70
2018-04-02T20:38:33.028Z,0.50
2018-04-02T20:41:00.664Z,0.93
2018-04-02T20:43:28.356Z,0.50
2018-04-02T20:45:55.983Z,0.80
2018-04-02T20:48:23.660Z,0.63
2018-04-02T20:50:51.429Z,0.60
2018-04-02T20:53:19.957Z,0.60
2018-04-02T20:55:47.592Z,1.00
2018-04-02T20:58:15.304Z,0.87
2018-04-02T21:00:42.982Z,0.40
2018-04-02T21:03:10.700Z,0.50
2018-04-02T21:05:38.330Z,0.40
2018-04-02T21:08:05.979Z,0.50
2018-04-02T21:10:33.678Z,0.40
2018-04-02T21:13:01.312Z,0.60
2018-04-02T21:15:29.076Z,0.50
2018-04-02T21:17:56.719Z,0.80
2018-04-02T21:20:24.366Z,0.60
2018-04-02T21:22:52.100Z,1.00
2018-04-02T21:25:19.763Z,0.50
2018-04-02T21:27:47.423Z,0.67
2018-04-02T21:30:15.140Z,1.60
2018-04-02T21:32:43.428Z,0.50
2018-04-02T21:35:11.169Z,0.90
2018-04-02T21:37:38.867Z,0.60
2018-04-02T21:40:06.516Z,0.50
2018-04-02T21:42:34.204Z,0.47
2018-04-02T21:45:01.924Z,0.50
2018-04-02T21:47:29.625Z,0.47
2018-04-02T21:49:57.455Z,0.53
2018-04-02T21:52:25.156Z,0.77
2018-04-02T21:54:52.778Z,0.50
2018-04-02T21:57:20.433Z,0.40
2018-04-02T21:59:48.039Z,0.50
2018-04-02T22:02:15.838Z,0.40
2018-04-02T22:04:43.495Z,0.80
2018-04-02T22:07:11.180Z,0.50
2018-04-02T22:09:38.788Z,0.40
2018-04-02T22:12:06.470Z,0.60
2018-04-02T22:14:35.597Z,0.50
2018-04-02T22:17:04.197Z,0.67
2018-04-02T22:19:31.943Z,0.90
2018-04-02T22:21:59.817Z,0.80
2018-04-02T22:24:28.307Z,0.90
2018-04-02T22:26:56.175Z,0.50
2018-04-02T22:29:23.891Z,0.40
2018-04-02T22:31:52.310Z,0.80
2018-04-02T22:34:19.922Z,0.83
2018-04-02T22:36:47.845Z,0.60
2018-04-02T22:39:15.473Z,0.53
2018-04-02T22:41:43.544Z,0.47
2018-04-02T22:44:11.233Z,0.57
2018-04-02T22:46:38.844Z,0.73
2018-04-02T22:49:06.521Z,0.40
2018-04-02T22:51:34.126Z,0.50
2018-04-02T22:54:01.808Z,1.13
2018-04-02T22:56:29.447Z,0.50
2018-04-02T22:58:57.118Z,1.00
2018-04-02T23:01:24.813Z,0.60
2018-04-02T23:03:52.552Z,0.40
2018-04-02T23:06:20.236Z,0.73
2018-04-02T23:08:47.857Z,0.83
2018-04-02T23:11:15.574Z,0.60
2018-04-02T23:13:43.258Z,0.60
2018-04-02T23:16:11.268Z,0.47
2018-04-02T23:18:38.901Z,0.67
2018-04-02T23:21:06.500Z,0.43
2018-04-02T23:23:34.206Z,0.90
2018-04-02T23:26:01.885Z,1.73
2018-04-02T23:28:29.506Z,0.90
2018-04-02T23:30:57.158Z,0.43
2018-04-02T23:33:24.903Z,0.60
2018-04-02T23:35:52.927Z,0.70
2018-04-02T23:38:20.620Z,0.70
2018-04-02T23:40:48.225Z,0.57
2018-04-02T23:43:15.867Z,0.90
2018-04-02T23:45:43.446Z,0.90
2018-04-02T23:48:11.017Z,0.50
2018-04-02T23:50:38.681Z,0.83
2018-04-02T23:53:06.333Z,0.97
2018-04-02T23:55:33.970Z,1.00
2018-04-02T23:58:01.619Z,0.73
